Time;durP1;ratioP1;P1;durP2;ratioP2;P2;SDS_P1;SDS_P2;PMS_P1;PMS_P2;Temp;Humidity;BMP_temperature;BMP_pressure;BME280_temperature;BME280_humidity;BME280_pressure;Samples;Min_cycle;Max_cycle;Signal;HPM_P1;HPM_P2
2022/05/13 00:01:44;;;;;;;8.18;5.93;;;18.30;99.90;;;;;;4987163;28;20524;-85
2022/05/13 00:04:31;;;;;;;13.25;6.95;;;18.30;99.90;;;;;;4989549;28;20053;-85
2022/05/13 00:07:19;;;;;;;10.32;6.55;;;18.30;99.90;;;;;;5002521;28;20377;-83
2022/05/13 00:10:06;;;;;;;10.50;6.75;;;18.30;99.90;;;;;;4990891;28;20064;-83
2022/05/13 00:12:52;;;;;;;18.13;6.47;;;18.20;99.90;;;;;;4993172;28;20112;-81
2022/05/13 00:15:42;;;;;;;9.35;6.65;;;18.20;99.90;;;;;;4994277;28;20049;-83
2022/05/13 00:22:20;;;;;;;13.00;7.95;;;17.80;99.90;;;;;;4998677;28;20045;-85
2022/05/13 00:25:11;;;;;;;14.38;7.70;;;17.70;99.90;;;;;;4992475;28;20050;-89
2022/05/13 00:27:59;;;;;;;10.85;7.00;;;17.80;99.90;;;;;;4994261;28;20042;-83
2022/05/13 00:30:52;;;;;;;12.70;7.75;;;17.90;99.90;;;;;;4994506;28;20161;-83
2022/05/13 00:33:52;;;;;;;12.45;7.18;;;17.90;99.90;;;;;;5001305;28;20042;-83
2022/05/13 00:36:43;;;;;;;11.60;6.47;;;17.90;99.90;;;;;;4994688;28;20045;-84
2022/05/13 00:39:29;;;;;;;13.43;7.10;;;17.60;99.90;;;;;;4995335;28;20509;-84
2022/05/13 00:42:17;;;;;;;11.68;7.70;;;17.70;99.90;;;;;;5014158;28;20545;-85
2022/05/13 00:45:04;;;;;;;12.15;6.85;;;17.80;99.90;;;;;;5013746;28;20425;-83
2022/05/13 00:47:53;;;;;;;8.97;6.77;;;17.70;99.90;;;;;;5029898;28;20052;-83
2022/05/13 00:50:40;;;;;;;13.80;8.07;;;17.50;99.90;;;;;;4991658;28;20049;-81
2022/05/13 00:53:46;;;;;;;14.40;7.47;;;17.50;99.90;;;;;;5014005;28;20532;-81
2022/05/13 00:56:34;;;;;;;13.18;7.40;;;17.50;99.90;;;;;;4999571;28;20064;-82
2022/05/13 00:59:25;;;;;;;12.70;7.45;;;17.60;99.90;;;;;;5013471;28;20540;-82
2022/05/13 01:02:12;;;;;;;12.27;7.53;;;17.50;99.90;;;;;;5013983;28;20048;-80
2022/05/13 01:05:48;;;;;;;10.88;6.97;;;17.60;99.90;;;;;;4999414;28;20045;-84
2022/05/13 01:08:36;;;;;;;11.27;8.15;;;17.20;99.90;;;;;;4999265;28;20147;-84
2022/05/13 01:11:26;;;;;;;14.45;7.75;;;17.40;99.90;;;;;;4999904;28;20068;-84
2022/05/13 01:14:24;;;;;;;17.83;8.27;;;17.30;99.90;;;;;;4999571;28;20053;-84
2022/05/13 01:20:42;;;;;;;17.95;8.70;;;17.20;99.90;;;;;;5013676;28;20168;-84
2022/05/13 01:23:32;;;;;;;13.02;8.07;;;17.20;99.90;;;;;;5013817;28;20509;-80
2022/05/13 01:26:26;;;;;;;16.05;8.05;;;17.30;99.90;;;;;;5013914;28;20136;-84
2022/05/13 01:29:13;;;;;;;14.95;8.25;;;17.20;99.90;;;;;;5014061;28;20060;-83
2022/05/13 01:32:02;;;;;;;14.73;7.78;;;17.20;99.90;;;;;;4999132;28;20049;-83
2022/05/13 01:34:49;;;;;;;15.38;8.32;;;17.20;99.90;;;;;;5013699;28;20088;-80
2022/05/13 01:38:28;;;;;;;16.08;9.63;;;17.10;99.90;;;;;;5013040;28;20060;-82
2022/05/13 01:41:13;;;;;;;15.65;7.90;;;17.20;99.90;;;;;;5003305;28;20053;-83
2022/05/13 01:44:00;;;;;;;12.45;8.00;;;17.20;99.90;;;;;;4999064;28;20056;-83
2022/05/13 01:46:48;;;;;;;10.15;7.10;;;17.30;99.90;;;;;;5013570;28;20192;-83
2022/05/13 01:49:36;;;;;;;13.32;8.05;;;17.30;99.90;;;;;;5013409;28;20056;-84
2022/05/13 01:52:23;;;;;;;12.43;7.70;;;17.20;99.90;;;;;;4998950;28;20053;-83
2022/05/13 01:55:17;;;;;;;12.98;7.80;;;17.00;99.90;;;;;;5013233;28;20135;-79
2022/05/13 01:58:04;;;;;;;14.10;8.02;;;16.80;99.90;;;;;;5013720;28;20452;-84
2022/05/13 02:00:52;;;;;;;16.10;8.35;;;17.00;99.90;;;;;;4998530;28;20662;-85
2022/05/13 02:04:12;;;;;;;13.85;8.07;;;17.00;99.90;;;;;;4998423;28;20404;-83
2022/05/13 02:06:58;;;;;;;19.80;10.70;;;16.90;99.90;;;;;;4998700;28;20184;-82
2022/05/13 02:10:17;;;;;;;;;;;17.10;99.90;;;;;;5002457;28;20040;-83
2022/05/13 02:13:05;;;;;;;13.18;8.35;;;17.00;99.90;;;;;;4998335;28;19928;-85
2022/05/13 02:15:52;;;;;;;13.18;8.18;;;17.10;99.90;;;;;;4998166;28;20516;-87
2022/05/13 02:18:41;;;;;;;12.73;8.57;;;17.30;99.90;;;;;;5012381;28;20061;-86
2022/05/13 02:21:27;;;;;;;13.60;8.20;;;17.40;99.90;;;;;;5012767;28;20056;-84
2022/05/13 02:24:13;;;;;;;20.60;9.18;;;17.20;99.90;;;;;;4997851;28;20052;-86
2022/05/13 02:26:58;;;;;;;16.33;8.90;;;16.90;99.90;;;;;;5012582;28;20045;-85
2022/05/13 02:29:47;;;;;;;14.75;9.75;;;16.80;99.90;;;;;;4997177;28;20096;-82
2022/05/13 02:32:35;;;;;;;17.33;11.00;;;17.10;99.90;;;;;;5012723;28;20127;-85
2022/05/13 02:35:21;;;;;;;11.52;8.30;;;17.10;99.90;;;;;;4984199;28;20318;-84
2022/05/13 02:38:13;;;;;;;15.02;9.95;;;16.50;99.90;;;;;;4997990;28;20045;-84
2022/05/13 02:41:12;;;;;;;14.63;9.63;;;16.00;99.90;;;;;;5012174;28;20045;-83
2022/05/13 02:43:58;;;;;;;16.83;9.90;;;15.70;99.90;;;;;;5012627;28;20060;-85
2022/05/13 02:46:44;;;;;;;17.20;10.85;;;15.70;99.90;;;;;;5012152;28;20068;-84
2022/05/13 02:49:29;;;;;;;14.95;10.00;;;15.60;99.90;;;;;;5012522;28;20061;-81
2022/05/13 02:52:22;;;;;;;18.52;10.38;;;15.70;99.90;;;;;;5012308;28;20543;-85
2022/05/13 02:55:09;;;;;;;16.08;10.77;;;16.00;99.90;;;;;;4997781;28;20153;-85
2022/05/13 02:57:54;;;;;;;17.05;11.13;;;15.90;99.90;;;;;;5012008;28;20131;-84
2022/05/13 03:00:40;;;;;;;16.70;10.25;;;15.80;99.90;;;;;;4997521;28;20120;-83
2022/05/13 03:03:26;;;;;;;13.95;9.30;;;15.80;99.90;;;;;;5011973;28;20555;-82
2022/05/13 03:06:12;;;;;;;13.20;8.80;;;15.80;99.90;;;;;;5012266;28;20052;-81
2022/05/13 03:08:58;;;;;;;12.88;8.15;;;15.90;99.90;;;;;;4997517;28;20092;-85
2022/05/13 03:11:44;;;;;;;13.57;8.55;;;15.80;99.90;;;;;;4997192;28;20524;-83
2022/05/13 03:14:33;;;;;;;16.25;8.15;;;16.10;99.90;;;;;;4997825;28;20527;-84
2022/05/13 03:17:19;;;;;;;12.02;8.70;;;16.50;99.90;;;;;;4997223;28;20180;-81
2022/05/13 03:20:07;;;;;;;16.08;10.35;;;16.50;99.90;;;;;;4997100;28;20132;-84
2022/05/13 03:23:05;;;;;;;13.80;9.60;;;16.60;99.90;;;;;;4997292;28;20076;-84
2022/05/13 03:25:54;;;;;;;14.65;9.82;;;16.60;99.90;;;;;;4997615;28;20045;-83
2022/05/13 03:28:40;;;;;;;14.80;9.10;;;16.50;99.90;;;;;;4996872;28;20077;-84
2022/05/13 03:31:26;;;;;;;15.55;8.73;;;16.50;99.90;;;;;;5011937;28;20068;-83
2022/05/13 03:34:12;;;;;;;15.70;9.23;;;16.40;99.90;;;;;;5012016;28;20120;-84
2022/05/13 03:36:58;;;;;;;16.25;8.07;;;16.30;99.90;;;;;;4996927;28;20135;-82
2022/05/13 03:39:44;;;;;;;16.88;9.88;;;16.30;99.90;;;;;;5012910;28;20049;-82
2022/05/13 03:42:29;;;;;;;20.13;9.00;;;16.30;99.90;;;;;;5015762;28;20715;-80
2022/05/13 03:45:18;;;;;;;19.92;8.85;;;16.30;99.90;;;;;;5015645;28;20104;-81
2022/05/13 03:48:05;;;;;;;13.18;8.60;;;16.30;99.90;;;;;;4994596;28;20522;-82
2022/05/13 03:50:53;;;;;;;17.30;8.20;;;15.70;99.90;;;;;;4996048;28;20049;-82
2022/05/13 03:53:39;;;;;;;11.52;8.13;;;15.30;99.90;;;;;;4995745;28;20429;-84
2022/05/13 03:56:26;;;;;;;13.30;7.97;;;15.20;99.90;;;;;;4998675;28;20053;-83
2022/05/13 03:59:12;;;;;;;17.67;8.45;;;15.40;99.90;;;;;;4996203;28;20069;-84
2022/05/13 04:01:58;;;;;;;14.38;7.80;;;15.90;99.90;;;;;;5006515;28;20092;-82
2022/05/13 04:11:05;;;;;;;15.77;7.85;;;16.70;99.90;;;;;;5015599;28;20052;-83
2022/05/13 04:16:56;;;;;;;12.38;7.75;;;16.70;99.90;;;;;;5015583;28;20120;-81
2022/05/13 04:19:41;;;;;;;18.30;8.00;;;16.80;99.90;;;;;;5014195;28;20199;-83
2022/05/13 04:22:27;;;;;;;18.42;10.18;;;16.80;99.90;;;;;;5004227;28;20048;-84
2022/05/13 04:25:13;;;;;;;21.55;10.25;;;17.00;99.90;;;;;;4994821;28;20061;-82
2022/05/13 04:27:59;;;;;;;19.30;10.48;;;17.00;99.90;;;;;;4996039;28;20078;-84
2022/05/13 04:30:45;;;;;;;26.08;12.77;;;17.00;99.90;;;;;;4994591;28;20513;-85
2022/05/13 04:33:33;;;;;;;28.27;13.90;;;16.80;99.90;;;;;;4994599;28;20170;-84
2022/05/13 04:36:46;;;;;;;24.15;13.13;;;16.70;99.90;;;;;;4995696;28;20505;-86
2022/05/13 04:39:32;;;;;;;25.35;12.68;;;16.60;99.90;;;;;;4994347;28;20450;-85
2022/05/13 04:45:26;;;;;;;66.35;39.90;;;16.70;99.90;;;;;;4994982;28;20060;-87
2022/05/13 04:48:16;;;;;;;45.85;32.53;;;17.20;99.90;;;;;;4993927;28;20617;-81
2022/05/13 04:51:03;;;;;;;28.85;18.27;;;17.30;99.90;;;;;;4993082;28;20128;-85
2022/05/13 04:53:51;;;;;;;20.35;11.10;;;17.20;99.90;;;;;;4992980;28;20253;-80
2022/05/13 04:56:37;;;;;;;19.58;10.68;;;16.90;99.90;;;;;;4992831;28;20045;-82
2022/05/13 04:59:22;;;;;;;17.13;9.45;;;17.00;99.90;;;;;;4992706;28;20060;-84
2022/05/13 05:02:08;;;;;;;42.05;26.02;;;16.90;99.90;;;;;;4994824;28;20053;-78
2022/05/13 05:04:54;;;;;;;75.78;51.17;;;17.00;99.90;;;;;;4993496;28;20168;-77
2022/05/13 05:07:40;;;;;;;58.35;33.75;;;17.10;99.90;;;;;;4993408;28;20045;-78
2022/05/13 05:10:26;;;;;;;18.27;10.65;;;17.30;99.90;;;;;;4994965;28;20061;-81
2022/05/13 05:13:25;;;;;;;78.13;52.72;;;16.90;99.90;;;;;;4994020;28;20068;-78
2022/05/13 05:16:12;;;;;;;43.55;30.90;;;16.80;99.90;;;;;;4992492;28;20520;-77
2022/05/13 05:18:59;;;;;;;192.60;123.43;;;17.00;99.90;;;;;;4991495;28;20065;-79
2022/05/13 05:21:46;;;;;;;22.33;15.68;;;16.90;99.90;;;;;;4992062;28;20054;-78
2022/05/13 05:24:32;;;;;;;20.13;10.27;;;16.90;99.90;;;;;;4991262;28;20057;-76
2022/05/13 05:27:18;;;;;;;19.90;11.57;;;17.10;99.90;;;;;;4993359;28;20049;-77
2022/05/13 05:30:12;;;;;;;20.85;10.70;;;17.40;99.90;;;;;;4991442;28;20105;-77
2022/05/13 05:32:59;;;;;;;16.00;9.18;;;17.20;99.90;;;;;;4993187;28;20105;-77
2022/05/13 05:35:45;;;;;;;14.27;9.60;;;17.30;99.90;;;;;;4991264;28;20057;-75
2022/05/13 05:38:31;;;;;;;11.98;8.52;;;17.40;99.90;;;;;;4991943;28;20410;-77
2022/05/13 05:41:18;;;;;;;14.63;9.60;;;17.40;99.90;;;;;;4991272;28;20200;-77
2022/05/13 05:44:04;;;;;;;15.27;8.88;;;17.30;99.90;;;;;;4991314;28;20068;-77
2022/05/13 05:46:50;;;;;;;16.25;9.40;;;17.50;99.90;;;;;;4998263;28;20061;-77
2022/05/13 05:49:36;;;;;;;13.88;8.70;;;17.70;99.90;;;;;;5009353;28;20100;-78
2022/05/13 05:52:22;;;;;;;15.02;9.27;;;18.00;99.90;;;;;;4996130;28;20401;-78
2022/05/13 05:58:16;;;;;;;15.45;8.73;;;18.10;99.90;;;;;;5012134;28;20061;-78
2022/05/13 06:01:04;;;;;;;15.25;9.48;;;18.10;99.90;;;;;;5013458;28;20099;-82
2022/05/13 06:03:50;;;;;;;13.65;8.30;;;18.40;99.90;;;;;;5013042;28;20061;-79
2022/05/13 06:06:36;;;;;;;15.15;9.15;;;18.30;99.90;;;;;;5013288;28;20115;-82
2022/05/13 06:09:39;;;;;;;16.13;9.07;;;18.30;99.90;;;;;;5013514;28;20452;-87
2022/05/13 06:12:32;;;;;;;15.13;9.25;;;18.40;99.90;;;;;;5013919;28;20144;-85
2022/05/13 06:15:18;;;;;;;15.55;9.80;;;18.40;99.90;;;;;;4999004;28;20193;-87
2022/05/13 06:18:04;;;;;;;15.00;8.63;;;18.10;99.90;;;;;;4998788;28;20127;-86
2022/05/13 06:20:50;;;;;;;13.80;8.40;;;18.10;99.90;;;;;;5050319;23;20135;-88
2022/05/13 06:23:36;;;;;;;16.13;9.10;;;18.20;99.90;;;;;;5012420;28;20068;-86
2022/05/13 06:26:22;;;;;;;12.75;8.20;;;18.30;99.90;;;;;;5013597;28;20501;-86
2022/05/13 06:29:58;;;;;;;14.65;8.82;;;18.20;99.90;;;;;;5014052;28;20041;-87
2022/05/13 06:32:49;;;;;;;18.13;8.73;;;18.30;99.90;;;;;;5013600;28;20172;-87
2022/05/13 06:35:50;;;;;;;;;;;18.40;99.90;;;;;;4998737;28;20580;-87
2022/05/13 06:38:37;;;;;;;12.32;7.82;;;18.50;99.90;;;;;;5012900;28;20462;-85
2022/05/13 06:41:24;;;;;;;13.90;8.32;;;18.40;99.90;;;;;;5011990;28;20088;-85
2022/05/13 06:44:10;;;;;;;14.93;8.52;;;18.40;99.90;;;;;;4998634;28;20346;-86
2022/05/13 06:46:56;;;;;;;16.13;8.30;;;18.40;99.90;;;;;;5013149;28;20060;-84
2022/05/13 06:49:43;;;;;;;12.40;7.65;;;18.60;99.90;;;;;;4998478;28;20052;-86
2022/05/13 06:52:29;;;;;;;15.57;8.80;;;18.80;99.90;;;;;;4998331;28;20057;-84
2022/05/13 06:55:51;;;;;;;13.45;7.32;;;18.70;99.90;;;;;;5054179;23;20065;-87
2022/05/13 06:58:37;;;;;;;12.80;7.45;;;18.90;99.90;;;;;;4992653;28;20409;-86
2022/05/13 07:01:23;;;;;;;12.18;7.20;;;18.90;99.90;;;;;;4978384;28;20050;-86
2022/05/13 07:04:12;;;;;;;12.73;6.50;;;19.00;99.90;;;;;;4993220;28;20112;-85
2022/05/13 07:07:04;;;;;;;10.70;7.10;;;19.10;99.90;;;;;;4978233;28;20046;-87
2022/05/13 07:09:50;;;;;;;13.32;7.13;;;19.00;99.90;;;;;;4992978;28;20136;-85
2022/05/13 07:12:38;;;;;;;12.18;6.82;;;19.10;99.90;;;;;;4978642;28;20655;-85
2022/05/13 07:15:24;;;;;;;14.27;6.85;;;19.20;99.90;;;;;;4992735;28;20061;-83
2022/05/13 07:21:27;;;;;;;12.32;7.40;;;19.60;99.90;;;;;;4993376;28;20065;-85
2022/05/13 07:24:12;;;;;;;13.07;6.95;;;19.40;99.90;;;;;;4992610;28;20145;-87
2022/05/13 07:26:58;;;;;;;12.70;6.72;;;19.50;99.90;;;;;;4992948;28;20049;-87
2022/05/13 07:29:44;;;;;;;18.55;7.15;;;19.70;99.90;;;;;;4978246;28;20108;-87
2022/05/13 07:32:30;;;;;;;13.45;6.95;;;19.80;99.90;;;;;;4993223;28;20073;-87
2022/05/13 07:35:16;;;;;;;13.85;7.20;;;19.90;99.90;;;;;;4978401;28;20050;-86
2022/05/13 07:38:16;;;;;;;11.55;8.25;;;19.90;99.90;;;;;;4978297;28;20054;-84
2022/05/13 07:41:27;;;;;;;16.42;7.40;;;19.90;99.90;;;;;;4978510;28;20061;-86
2022/05/13 07:44:14;;;;;;;11.50;6.25;;;19.80;99.90;;;;;;4993052;28;20534;-84
2022/05/13 07:47:08;;;;;;;9.02;5.72;;;20.10;99.90;;;;;;4978041;28;20510;-87
2022/05/13 07:49:54;;;;;;;14.07;5.30;;;20.30;99.90;;;;;;4993491;28;20413;-86
2022/05/13 07:52:43;;;;;;;8.40;5.38;;;20.40;99.80;;;;;;4977954;28;20101;-86
2022/05/13 07:59:02;;;;;;;11.63;6.00;;;20.50;97.30;;;;;;4914007;29;20051;-88
2022/05/13 08:01:59;;;;;;;8.73;5.57;;;20.50;97.60;;;;;;4915791;29;20392;-88
2022/05/13 08:04:45;;;;;;;11.55;6.80;;;20.60;98.70;;;;;;4914993;29;20567;-86
2022/05/13 08:07:31;;;;;;;11.43;6.40;;;20.80;98.80;;;;;;4914281;29;20123;-84
2022/05/13 08:10:17;;;;;;;12.23;6.35;;;20.60;98.90;;;;;;4914767;29;20403;-84
2022/05/13 08:13:11;;;;;;;14.40;6.25;;;20.70;99.30;;;;;;4914675;29;20078;-86
2022/05/13 08:16:21;;;;;;;11.88;6.72;;;20.90;99.20;;;;;;4913066;29;20586;-84
2022/05/13 08:19:18;;;;;;;15.27;8.02;;;21.00;99.40;;;;;;4914095;29;20051;-85
2022/05/13 08:22:06;;;;;;;12.20;6.55;;;21.10;98.00;;;;;;4915349;29;20043;-85
2022/05/13 08:25:06;;;;;;;10.73;5.45;;;20.90;98.20;;;;;;4915380;29;20055;-87
2022/05/13 08:28:17;;;;;;;13.38;6.65;;;21.00;97.90;;;;;;4907822;29;20051;-84
2022/05/13 08:31:21;;;;;;;8.68;5.85;;;21.00;97.30;;;;;;4904257;29;20087;-84
2022/05/13 08:35:07;;;;;;;9.20;5.70;;;21.10;97.40;;;;;;4919097;29;20059;-85
2022/05/13 08:45:56;;;;;;;10.98;5.60;;;21.70;96.40;;;;;;4935775;29;20102;-87
2022/05/13 08:49:44;;;;;;;12.15;5.70;;;21.80;95.70;;;;;;4935228;29;20490;-84
2022/05/13 09:06:10;;;;;;;14.55;6.15;;;22.30;94.40;;;;;;4877375;29;20039;-87
2022/05/13 09:12:22;;;;;;;8.75;5.82;;;22.80;93.90;;;;;;5007544;23;20064;-85
2022/05/13 09:19:57;;;;;;;9.55;5.88;;;23.10;92.20;;;;;;4984875;28;20386;-77
2022/05/13 09:22:53;;;;;;;9.32;5.75;;;23.30;91.70;;;;;;4986710;28;20061;-78
2022/05/13 09:25:54;;;;;;;10.40;6.28;;;23.30;92.20;;;;;;4987955;28;20412;-79
2022/05/13 09:29:16;;;;;;;10.57;6.00;;;23.40;92.10;;;;;;4998216;28;20120;-78
2022/05/13 09:32:06;;;;;;;12.38;6.15;;;23.60;92.30;;;;;;4986854;28;20509;-80
2022/05/13 09:35:10;;;;;;;12.18;5.32;;;23.70;91.60;;;;;;4995358;28;20524;-80
2022/05/13 09:37:57;;;;;;;15.95;5.63;;;23.90;90.60;;;;;;4993597;28;20053;-81
2022/05/13 09:40:56;;;;;;;9.82;5.43;;;24.00;90.20;;;;;;4988421;28;20042;-80
2022/05/13 09:43:55;;;;;;;8.90;4.82;;;24.10;91.30;;;;;;4975082;28;20053;-82
2022/05/13 09:46:47;;;;;;;9.52;5.65;;;24.20;88.00;;;;;;4989170;28;20466;-82
2022/05/13 09:49:38;;;;;;;9.02;5.55;;;24.30;85.50;;;;;;4981601;28;20426;-80
2022/05/13 09:52:34;;;;;;;13.50;6.70;;;24.20;85.20;;;;;;4958238;28;20061;-83
2022/05/13 09:55:32;;;;;;;10.95;5.07;;;24.20;85.00;;;;;;4957996;28;20034;-83
2022/05/13 09:58:21;;;;;;;8.27;5.65;;;24.50;83.10;;;;;;4971827;28;20378;-81
2022/05/13 10:01:10;;;;;;;10.00;4.55;;;24.40;81.30;;;;;;4955167;28;20170;-79
2022/05/13 10:04:10;;;;;;;15.27;5.80;;;24.40;78.30;;;;;;4972574;28;20141;-81
2022/05/13 10:07:13;;;;;;;7.05;4.30;;;24.70;79.00;;;;;;4958427;28;20045;-79
2022/05/13 10:16:47;;;;;;;10.73;4.78;;;25.30;76.40;;;;;;4973834;28;20085;-82
2022/05/13 10:19:52;;;;;;;9.98;4.75;;;25.30;77.10;;;;;;4959569;28;20835;-83
2022/05/13 10:22:56;;;;;;;8.73;4.70;;;25.50;77.50;;;;;;4973868;28;20045;-76
2022/05/13 10:25:52;;;;;;;8.93;5.20;;;25.60;76.90;;;;;;4955392;28;20383;-76
2022/05/13 10:29:11;;;;;;;12.88;5.07;;;25.80;76.90;;;;;;4970990;28;20145;-76
2022/05/13 10:31:57;;;;;;;7.93;4.47;;;25.90;74.40;;;;;;4956977;28;20528;-78
2022/05/13 10:34:48;;;;;;;13.25;4.65;;;25.70;73.80;;;;;;4969290;28;20060;-81
2022/05/13 10:37:39;;;;;;;10.27;4.30;;;25.40;75.20;;;;;;4955867;28;20082;-74
2022/05/13 10:40:27;;;;;;;10.27;5.38;;;25.70;74.60;;;;;;4970182;28;20097;-78
2022/05/13 10:44:03;;;;;;;12.75;4.43;;;26.00;74.30;;;;;;4971431;28;20049;-80
2022/05/13 10:47:07;;;;;;;12.38;5.35;;;26.10;72.40;;;;;;4930709;29;20455;-73
2022/05/13 10:49:54;;;;;;;7.55;4.28;;;25.80;74.40;;;;;;4943735;28;20536;-75
2022/05/13 10:53:03;;;;;;;11.02;4.35;;;26.00;73.60;;;;;;4973005;28;20101;-76
2022/05/13 10:56:10;;;;;;;8.20;4.63;;;26.30;73.10;;;;;;4972938;28;20050;-74
2022/05/13 10:59:14;;;;;;;7.22;4.18;;;26.50;72.50;;;;;;4972312;28;20057;-73
2022/05/13 11:02:32;;;;;;;7.47;4.32;;;26.20;69.90;;;;;;4972723;28;20466;-74
2022/05/13 11:05:37;;;;;;;8.52;4.72;;;26.50;70.70;;;;;;4956655;28;20089;-79
2022/05/13 11:08:49;;;;;;;27.55;5.80;;;26.30;70.40;;;;;;4970628;28;20107;-83
2022/05/13 11:11:43;;;;;;;6.15;4.68;;;26.40;70.90;;;;;;4953486;28;20042;-83
2022/05/13 11:15:01;;;;;;;8.73;4.75;;;26.50;69.60;;;;;;4954410;29;20126;-82
2022/05/13 11:18:02;;;;;;;10.20;5.78;;;26.70;69.30;;;;;;4954108;29;20139;-83
2022/05/13 11:21:10;;;;;;;10.30;5.30;;;26.80;69.90;;;;;;4953002;29;20087;-83
2022/05/13 11:28:17;;;;;;;11.60;5.63;;;27.40;71.20;;;;;;4951790;29;20126;-84
2022/05/13 11:31:40;;;;;;;9.55;5.35;;;27.70;68.50;;;;;;4952319;29;20054;-81
2022/05/13 11:34:47;;;;;;;8.68;5.10;;;27.40;66.90;;;;;;4893812;29;20128;-83
2022/05/13 11:37:38;;;;;;;13.32;4.95;;;27.60;67.10;;;;;;4952255;29;20438;-83
2022/05/13 11:40:51;;;;;;;15.23;5.20;;;27.90;67.30;;;;;;4952676;29;20181;-83
2022/05/13 11:44:04;;;;;;;12.35;5.55;;;28.00;67.10;;;;;;4953857;29;20054;-83
2022/05/13 11:46:59;;;;;;;9.00;5.13;;;28.10;66.40;;;;;;4953756;29;20062;-82
2022/05/13 11:49:47;;;;;;;12.25;4.85;;;28.00;66.20;;;;;;4939039;29;20506;-81
2022/05/13 11:52:35;;;;;;;9.02;5.10;;;27.80;65.50;;;;;;4953629;29;20510;-81
2022/05/13 11:55:29;;;;;;;11.13;5.43;;;28.00;68.00;;;;;;4954182;29;20051;-82
2022/05/13 11:59:01;;;;;;;9.30;4.25;;;28.00;65.30;;;;;;4939335;29;20525;-81
2022/05/13 12:01:48;;;;;;;9.45;5.20;;;28.10;66.40;;;;;;4955821;28;20098;-82
2022/05/13 12:04:37;;;;;;;13.27;5.30;;;28.20;67.40;;;;;;4957393;29;20399;-82
2022/05/13 12:07:32;;;;;;;10.02;4.93;;;28.60;66.50;;;;;;4943195;29;20155;-82
2022/05/13 12:10:26;;;;;;;9.20;5.32;;;28.20;64.80;;;;;;4956929;28;20106;-82
2022/05/13 12:13:24;;;;;;;6.20;4.57;;;28.00;66.20;;;;;;4956872;29;20046;-83
2022/05/13 12:16:36;;;;;;;9.88;4.90;;;28.20;64.40;;;;;;4942312;29;20058;-82
2022/05/13 12:19:39;;;;;;;9.40;4.90;;;28.00;64.90;;;;;;4957103;29;20091;-83
2022/05/13 12:23:10;;;;;;;20.50;8.10;;;28.50;65.70;;;;;;4907653;29;20147;-83
2022/05/13 12:25:58;;;;;;;9.68;4.82;;;28.60;66.00;;;;;;4962364;28;20185;-83
2022/05/13 12:28:56;;;;;;;10.82;5.05;;;28.80;66.20;;;;;;4975640;28;20692;-83
2022/05/13 12:32:09;;;;;;;10.65;5.05;;;27.90;66.60;;;;;;4961277;28;20449;-84
2022/05/13 12:38:11;;;;;;;6.60;4.60;;;28.20;64.50;;;;;;4975863;28;20422;-87
2022/05/13 12:41:10;;;;;;;6.97;5.00;;;28.50;64.80;;;;;;4976733;28;20103;-84
2022/05/13 12:44:30;;;;;;;9.35;5.07;;;28.80;64.70;;;;;;4976078;28;20403;-84
2022/05/13 12:47:20;;;;;;;8.65;5.03;;;29.40;64.50;;;;;;4975824;28;20140;-86
2022/05/13 12:50:27;;;;;;;10.07;5.07;;;29.50;63.00;;;;;;4960995;28;20053;-84
2022/05/13 12:53:27;;;;;;;11.15;5.40;;;29.30;63.80;;;;;;4961008;28;20046;-84
2022/05/13 12:56:29;;;;;;;10.90;5.30;;;29.70;63.10;;;;;;4975979;28;20637;-86
2022/05/13 12:59:27;;;;;;;10.45;6.35;;;29.40;62.70;;;;;;4975065;28;20971;-84
2022/05/13 13:02:13;;;;;;;10.65;4.72;;;29.00;62.80;;;;;;4975495;28;20106;-83
2022/05/13 13:05:07;;;;;;;7.47;5.03;;;29.20;61.80;;;;;;4974914;28;20053;-83
2022/05/13 13:08:01;;;;;;;9.38;4.35;;;29.60;62.10;;;;;;4975247;28;20054;-82
2022/05/13 13:11:03;;;;;;;9.20;5.45;;;30.10;60.00;;;;;;4974465;28;20113;-84
2022/05/13 13:13:52;;;;;;;10.98;5.20;;;30.00;61.00;;;;;;4974329;28;20102;-82
2022/05/13 13:16:54;;;;;;;10.35;4.47;;;30.10;60.30;;;;;;4974932;28;20057;-80
2022/05/13 13:19:46;;;;;;;6.60;3.92;;;30.00;55.70;;;;;;4960376;28;20129;-83
2022/05/13 13:22:38;;;;;;;8.00;4.28;;;30.30;56.60;;;;;;4960366;28;20054;-83
2022/05/13 13:25:27;;;;;;;7.32;3.95;;;30.00;57.10;;;;;;4973368;28;20062;-80
2022/05/13 13:28:25;;;;;;;8.55;3.85;;;30.00;57.30;;;;;;4974281;28;20490;-82
2022/05/13 13:31:26;;;;;;;11.55;4.30;;;30.60;56.20;;;;;;4959609;28;20178;-82
2022/05/13 13:34:25;;;;;;;6.93;3.60;;;30.20;58.00;;;;;;4973248;28;20402;-79
2022/05/13 13:37:13;;;;;;;6.72;3.70;;;30.30;58.60;;;;;;4955635;29;20058;-82
2022/05/13 13:40:21;;;;;;;8.13;4.07;;;30.30;57.80;;;;;;4955184;29;20548;-81
2022/05/13 13:43:35;;;;;;;8.50;4.55;;;30.30;57.80;;;;;;4955221;29;20050;-83
2022/05/13 13:46:28;;;;;;;8.32;4.13;;;30.50;55.60;;;;;;4955531;29;20046;-83
2022/05/13 13:49:28;;;;;;;10.45;3.80;;;30.40;54.80;;;;;;4955288;29;20058;-84
2022/05/13 13:52:19;;;;;;;7.07;4.63;;;30.50;56.10;;;;;;4955160;29;20043;-83
2022/05/13 13:55:11;;;;;;;6.82;4.30;;;30.70;56.10;;;;;;4941067;29;20182;-82
2022/05/13 13:58:16;;;;;;;6.32;4.20;;;30.60;57.70;;;;;;4941116;29;20053;-82
2022/05/13 14:01:22;;;;;;;10.30;6.13;;;30.40;56.00;;;;;;4954804;29;20102;-78
2022/05/13 14:04:22;;;;;;;11.93;6.43;;;29.80;58.70;;;;;;4955065;29;20046;-83
2022/05/13 14:07:10;;;;;;;7.88;4.00;;;30.50;58.10;;;;;;4940815;29;20058;-84
2022/05/13 14:10:00;;;;;;;9.35;4.18;;;30.80;56.20;;;;;;4954840;29;20419;-85
2022/05/13 14:12:52;;;;;;;8.52;4.05;;;31.30;55.90;;;;;;4954939;29;20179;-83
2022/05/13 14:15:44;;;;;;;5.95;4.20;;;31.40;55.90;;;;;;4954972;29;20202;-84
2022/05/13 14:18:30;;;;;;;6.72;4.43;;;31.30;53.60;;;;;;4954997;29;20054;-82
2022/05/13 14:21:16;;;;;;;6.90;3.50;;;31.20;55.40;;;;;;4954483;29;20058;-80
2022/05/13 14:24:05;;;;;;;6.43;3.92;;;31.00;53.20;;;;;;4956077;28;20094;-82
2022/05/13 14:26:57;;;;;;;8.40;4.25;;;30.90;53.60;;;;;;4958932;28;20182;-81
2022/05/13 14:29:44;;;;;;;8.43;4.55;;;30.70;54.60;;;;;;4972801;28;20058;-80
2022/05/13 14:32:36;;;;;;;14.90;4.32;;;30.90;54.40;;;;;;4972587;28;20186;-79
2022/05/13 14:35:29;;;;;;;7.28;3.97;;;30.90;55.90;;;;;;4974112;28;20158;-78
2022/05/13 14:41:52;;;;;;;7.82;4.50;;;30.80;55.80;;;;;;4973265;28;20534;-79
2022/05/13 14:44:42;;;;;;;8.23;4.53;;;31.40;55.40;;;;;;4958742;28;20050;-78
2022/05/13 14:47:28;;;;;;;7.65;4.20;;;31.40;55.00;;;;;;4973128;28;20057;-78
2022/05/13 14:50:18;;;;;;;11.18;4.05;;;31.10;54.00;;;;;;4958858;28;20405;-78
2022/05/13 14:53:23;;;;;;;8.93;5.15;;;31.10;54.40;;;;;;4958229;28;20137;-78
2022/05/13 14:56:16;;;;;;;22.20;5.00;;;31.20;54.60;;;;;;4973612;28;20194;-81
2022/05/13 14:59:06;;;;;;;5.82;4.18;;;31.10;54.90;;;;;;4972580;28;20049;-80
2022/05/13 15:01:55;;;;;;;6.97;4.07;;;31.30;56.20;;;;;;4972636;28;20129;-81
2022/05/13 15:04:54;;;;;;;7.90;3.88;;;31.30;55.40;;;;;;4973676;28;20050;-82
2022/05/13 15:07:42;;;;;;;7.22;3.50;;;31.30;55.00;;;;;;4972826;28;20514;-85
2022/05/13 15:10:31;;;;;;;9.73;4.80;;;31.60;54.20;;;;;;4972676;28;20065;-85
2022/05/13 15:13:16;;;;;;;11.02;9.32;;;31.80;54.70;;;;;;4973619;28;20065;-85
2022/05/13 15:16:06;;;;;;;13.63;7.68;;;31.90;53.80;;;;;;4973889;28;20058;-87
2022/05/13 15:18:54;;;;;;;9.02;7.50;;;31.60;55.50;;;;;;4952429;28;20546;-79
2022/05/13 15:21:43;;;;;;;8.40;5.18;;;31.50;54.40;;;;;;4972754;28;20049;-83
2022/05/13 15:24:31;;;;;;;10.88;9.73;;;31.90;54.00;;;;;;4958364;28;20077;-81
2022/05/13 15:27:21;;;;;;;12.10;8.82;;;31.70;54.20;;;;;;4958323;28;20539;-88
2022/05/13 15:30:07;;;;;;;9.68;6.10;;;31.50;54.80;;;;;;4958022;28;20053;-85
2022/05/13 15:32:54;;;;;;;11.68;5.32;;;31.70;53.70;;;;;;4956493;28;20073;-85
2022/05/13 15:35:40;;;;;;;8.82;4.60;;;32.00;54.20;;;;;;4956559;28;20510;-81
2022/05/13 15:38:26;;;;;;;8.50;4.40;;;31.80;53.70;;;;;;4961880;28;20144;-80
2022/05/13 15:41:26;;;;;;;18.77;5.68;;;32.10;53.10;;;;;;4961387;28;20466;-86
2022/05/13 15:47:11;;;;;;;8.50;4.75;;;31.80;53.20;;;;;;5105081;23;20047;-80
2022/05/13 15:53:22;;;;;;;55.25;49.67;;;31.80;53.00;;;;;;4957099;29;20058;-83
2022/05/13 15:56:16;;;;;;;30.85;27.73;;;31.30;54.30;;;;;;4942571;29;20399;-82
2022/05/13 15:59:03;;;;;;;31.10;27.55;;;31.40;55.00;;;;;;4956182;29;20110;-78
2022/05/13 16:01:59;;;;;;;47.45;42.65;;;31.60;54.10;;;;;;4957307;29;20493;-80
2022/05/13 16:04:44;;;;;;;13.60;9.50;;;31.50;53.90;;;;;;4956408;29;20054;-81
2022/05/13 16:07:38;;;;;;;8.73;5.13;;;31.50;54.30;;;;;;4942870;29;20073;-81
2022/05/13 16:10:28;;;;;;;13.73;7.95;;;31.20;53.50;;;;;;4942061;29;20054;-81
2022/05/13 16:13:37;;;;;;;15.77;10.70;;;31.10;54.30;;;;;;4956062;29;20075;-83
2022/05/13 16:16:30;;;;;;;16.27;12.65;;;31.00;54.70;;;;;;4957175;29;20611;-81